createdAt,value
2022-08-21T00:00:20.313Z,17.70
2022-08-21T00:02:49.016Z,17.60
2022-08-21T00:05:16.725Z,17.60
2022-08-21T00:07:43.640Z,17.60
2022-08-21T00:10:11.505Z,17.60
2022-08-21T00:13:35.328Z,17.60
2022-08-21T00:16:04.808Z,17.60
2022-08-21T00:18:32.227Z,17.50
2022-08-21T00:20:59.372Z,17.40
2022-08-21T00:23:26.404Z,17.40
2022-08-21T00:29:39.895Z,17.40
2022-08-21T00:32:08.162Z,17.40
2022-08-21T00:34:35.055Z,17.30
2022-08-21T00:37:28.100Z,17.30
2022-08-21T00:39:57.584Z,17.40
2022-08-21T00:42:25.004Z,17.40
2022-08-21T00:44:52.241Z,17.40
2022-08-21T00:47:20.867Z,17.30
2022-08-21T00:49:47.851Z,17.30
2022-08-21T00:52:20.090Z,17.30
2022-08-21T00:54:48.489Z,17.20
2022-08-21T00:57:20.193Z,17.20
2022-08-21T00:59:51.955Z,17.20
2022-08-21T01:02:22.172Z,17.20
2022-08-21T01:04:50.021Z,17.10
2022-08-21T01:07:18.021Z,17.00
2022-08-21T01:09:48.361Z,17.10
2022-08-21T01:12:16.087Z,17.00
2022-08-21T01:14:46.251Z,17.00
2022-08-21T01:17:14.509Z,16.90
2022-08-21T01:19:43.376Z,16.90
2022-08-21T01:22:11.658Z,16.90
2022-08-21T01:24:38.657Z,16.80
2022-08-21T01:27:06.331Z,16.80
2022-08-21T01:29:38.707Z,16.70
2022-08-21T01:32:08.315Z,16.70
2022-08-21T01:34:37.162Z,16.60
2022-08-21T01:37:04.560Z,16.60
2022-08-21T01:39:33.106Z,16.50
2022-08-21T01:42:00.053Z,16.50
2022-08-21T01:44:27.635Z,16.50
2022-08-21T01:46:55.564Z,16.50
2022-08-21T01:49:22.676Z,16.50
2022-08-21T01:51:49.692Z,16.40
2022-08-21T01:54:16.675Z,16.40
2022-08-21T01:56:48.021Z,16.40
2022-08-21T01:59:15.360Z,16.40
2022-08-21T02:01:42.617Z,16.30
2022-08-21T02:04:11.450Z,16.30
2022-08-21T02:06:39.241Z,16.30
2022-08-21T02:09:07.673Z,16.30
2022-08-21T02:11:35.550Z,16.30
2022-08-21T02:14:04.052Z,16.20
2022-08-21T02:16:31.330Z,16.20
2022-08-21T02:19:00.239Z,16.10
2022-08-21T02:21:27.261Z,16.10
2022-08-21T02:23:54.194Z,16.00
2022-08-21T02:26:21.205Z,16.00
2022-08-21T02:28:54.254Z,16.00
2022-08-21T02:31:22.902Z,16.00
2022-08-21T02:33:49.872Z,16.00
2022-08-21T02:36:16.798Z,16.00
2022-08-21T02:38:44.864Z,16.00
2022-08-21T02:41:14.398Z,16.00
2022-08-21T02:47:54.679Z,15.90
2022-08-21T02:50:26.664Z,15.90
2022-08-21T02:52:55.058Z,15.90
2022-08-21T02:55:24.336Z,15.80
2022-08-21T02:57:51.258Z,15.70
2022-08-21T03:00:19.051Z,15.60
2022-08-21T03:02:47.526Z,15.60
2022-08-21T03:05:16.652Z,15.50
2022-08-21T03:07:44.073Z,15.50
2022-08-21T03:10:11.320Z,15.50
2022-08-21T03:12:38.360Z,15.40
2022-08-21T03:15:07.585Z,15.40
2022-08-21T03:17:34.784Z,15.40
2022-08-21T03:20:02.810Z,15.40
2022-08-21T03:22:31.106Z,15.40
2022-08-21T03:24:58.350Z,15.30
2022-08-21T03:27:25.936Z,15.30
2022-08-21T03:29:53.215Z,15.20
2022-08-21T03:32:20.528Z,15.10
2022-08-21T03:34:47.773Z,15.00
2022-08-21T03:37:15.899Z,15.00
2022-08-21T03:39:44.172Z,15.00
2022-08-21T03:42:11.362Z,15.00
2022-08-21T03:44:40.464Z,15.00
2022-08-21T03:47:07.740Z,14.90
2022-08-21T03:49:34.730Z,14.90
2022-08-21T03:52:02.072Z,14.80
2022-08-21T03:54:29.057Z,14.80
2022-08-21T03:56:57.533Z,14.80
2022-08-21T03:59:25.168Z,14.70
2022-08-21T04:01:53.984Z,14.70
2022-08-21T04:04:21.201Z,14.80
2022-08-21T04:06:48.315Z,14.70
2022-08-21T04:09:15.243Z,14.70
2022-08-21T04:11:42.140Z,14.70
2022-08-21T04:14:10.786Z,14.70
2022-08-21T04:16:37.706Z,14.70
2022-08-21T04:19:04.683Z,14.70
2022-08-21T04:21:32.265Z,14.70
2022-08-21T04:24:00.191Z,14.70
2022-08-21T04:26:27.364Z,14.60
2022-08-21T04:28:54.361Z,14.60
2022-08-21T04:31:22.692Z,14.50
2022-08-21T04:33:49.621Z,14.50
2022-08-21T04:36:16.645Z,14.60
2022-08-21T04:38:47.836Z,14.60
2022-08-21T04:41:14.789Z,14.60
2022-08-21T04:43:41.976Z,14.50
2022-08-21T04:46:08.892Z,14.50
2022-08-21T04:48:42.258Z,14.60
2022-08-21T04:51:12.814Z,14.60
2022-08-21T04:53:44.699Z,14.60
2022-08-21T04:56:16.259Z,14.50
2022-08-21T04:58:43.668Z,14.50
2022-08-21T05:01:18.442Z,14.50
2022-08-21T05:03:48.819Z,14.50
2022-08-21T05:06:17.912Z,14.60
2022-08-21T05:08:47.760Z,14.60
2022-08-21T05:11:14.851Z,14.60
2022-08-21T05:13:42.312Z,14.70
2022-08-21T05:16:09.207Z,14.70
2022-08-21T05:18:36.160Z,14.70
2022-08-21T05:21:05.717Z,14.70
2022-08-21T05:23:32.675Z,14.80
2022-08-21T05:25:59.645Z,14.90
2022-08-21T05:28:27.164Z,14.90
2022-08-21T05:30:54.680Z,14.90
2022-08-21T05:33:21.680Z,15.00
2022-08-21T05:35:51.721Z,15.00
2022-08-21T05:38:20.277Z,15.00
2022-08-21T05:40:47.676Z,15.10
2022-08-21T05:43:14.725Z,15.10
2022-08-21T05:45:44.223Z,15.20
2022-08-21T05:48:14.312Z,15.20
2022-08-21T05:50:41.987Z,15.20
2022-08-21T05:53:10.741Z,15.30
2022-08-21T05:55:44.911Z,15.30
2022-08-21T05:58:46.952Z,15.30
2022-08-21T06:01:35.605Z,15.40
2022-08-21T06:04:02.824Z,15.40
2022-08-21T06:06:29.673Z,15.50
2022-08-21T06:08:56.577Z,15.60
2022-08-21T06:11:28.829Z,15.70
2022-08-21T06:13:55.975Z,15.70
2022-08-21T06:16:23.673Z,15.80
2022-08-21T06:18:50.835Z,15.90
2022-08-21T06:21:18.423Z,16.00
2022-08-21T06:23:45.458Z,16.00
2022-08-21T06:26:14.223Z,16.10
2022-08-21T06:28:43.796Z,16.20
2022-08-21T06:31:16.649Z,16.30
2022-08-21T06:33:43.689Z,16.40
2022-08-21T06:36:10.757Z,16.50
2022-08-21T06:38:37.967Z,16.60
2022-08-21T06:41:07.403Z,16.60
2022-08-21T06:43:39.593Z,16.80
2022-08-21T06:46:08.875Z,16.80
2022-08-21T06:48:35.966Z,16.90
2022-08-21T06:51:03.544Z,17.00
2022-08-21T06:53:30.445Z,17.10
2022-08-21T06:55:57.323Z,17.20
2022-08-21T06:58:24.458Z,17.30
2022-08-21T07:00:58.777Z,17.40
2022-08-21T07:03:30.831Z,17.40
2022-08-21T07:05:59.279Z,17.60
2022-08-21T07:08:27.566Z,17.70
2022-08-21T07:10:55.904Z,17.80
2022-08-21T07:13:22.917Z,17.90
2022-08-21T07:15:49.951Z,18.00
2022-08-21T07:18:17.370Z,18.10
2022-08-21T07:20:46.405Z,18.20
2022-08-21T07:23:23.019Z,18.30
2022-08-21T07:25:49.950Z,18.50
2022-08-21T07:28:16.842Z,18.60
2022-08-21T07:30:43.704Z,18.70
2022-08-21T07:33:10.641Z,18.70
2022-08-21T07:35:37.518Z,18.80
2022-08-21T07:38:05.846Z,18.90
2022-08-21T07:40:32.806Z,19.00
2022-08-21T07:42:59.859Z,19.10
2022-08-21T07:45:27.508Z,19.20
2022-08-21T07:47:57.525Z,19.30
2022-08-21T07:50:25.618Z,19.30
2022-08-21T07:52:52.866Z,19.30
2022-08-21T07:55:22.603Z,19.40
2022-08-21T07:57:50.089Z,19.60
2022-08-21T08:00:20.470Z,19.70
2022-08-21T08:02:50.935Z,19.70
2022-08-21T08:05:20.120Z,19.90
2022-08-21T08:07:48.540Z,19.90
2022-08-21T08:10:16.782Z,20.10
2022-08-21T08:12:45.846Z,20.20
2022-08-21T08:15:16.209Z,20.30
2022-08-21T08:17:43.255Z,20.40
2022-08-21T08:20:12.043Z,20.50
2022-08-21T08:22:39.964Z,20.60
2022-08-21T08:25:09.769Z,20.80
2022-08-21T08:27:37.232Z,20.90
2022-08-21T08:30:07.614Z,21.10
2022-08-21T08:32:34.773Z,21.30
2022-08-21T08:35:01.709Z,21.30
2022-08-21T08:37:30.470Z,21.40
2022-08-21T08:40:04.618Z,21.50
2022-08-21T08:42:34.766Z,21.60
2022-08-21T08:45:07.840Z,21.70
2022-08-21T08:47:39.097Z,21.90
2022-08-21T08:50:09.648Z,22.00
2022-08-21T08:52:41.356Z,22.20
2022-08-21T08:55:12.368Z,22.30
2022-08-21T08:57:43.117Z,22.50
2022-08-21T09:00:14.726Z,22.70
2022-08-21T09:02:46.613Z,22.90
2022-08-21T09:05:23.239Z,23.10
2022-08-21T09:08:08.677Z,23.30
2022-08-21T09:10:48.298Z,23.50
2022-08-21T09:13:28.074Z,23.60
2022-08-21T09:16:06.159Z,23.80
2022-08-21T09:18:45.253Z,24.10
2022-08-21T09:21:19.024Z,24.40
2022-08-21T09:23:55.785Z,25.30
2022-08-21T09:26:26.130Z,27.30
2022-08-21T09:28:54.681Z,29.40
2022-08-21T09:31:27.043Z,31.20
2022-08-21T09:33:59.354Z,32.50
2022-08-21T09:36:34.143Z,33.50
2022-08-21T09:39:01.022Z,34.70
2022-08-21T09:41:29.750Z,35.90
2022-08-21T09:43:56.703Z,36.80
2022-08-21T09:46:26.906Z,37.50
2022-08-21T09:48:56.185Z,38.00
2022-08-21T09:51:26.749Z,38.00
2022-08-21T09:53:58.063Z,37.80
2022-08-21T09:56:48.495Z,37.50
2022-08-21T09:59:25.521Z,37.10
2022-08-21T10:01:54.919Z,36.50
2022-08-21T10:04:25.085Z,36.20
2022-08-21T10:06:52.095Z,36.00
2022-08-21T10:09:23.494Z,35.60
2022-08-21T10:12:11.193Z,35.50
2022-08-21T10:14:50.065Z,35.60
2022-08-21T10:17:26.374Z,35.60
2022-08-21T10:20:01.565Z,35.60
2022-08-21T10:22:39.076Z,35.50
2022-08-21T10:25:14.396Z,35.50
2022-08-21T10:27:50.199Z,35.60
2022-08-21T10:30:23.400Z,35.60
2022-08-21T10:33:28.604Z,35.60
2022-08-21T10:36:03.104Z,35.70
2022-08-21T10:39:23.324Z,35.80
2022-08-21T10:42:13.412Z,36.00
2022-08-21T10:44:48.516Z,35.90
2022-08-21T10:47:20.394Z,35.60
2022-08-21T10:49:59.712Z,35.10
2022-08-21T10:52:44.257Z,34.70
2022-08-21T10:55:15.938Z,34.50
2022-08-21T10:57:48.531Z,34.40
2022-08-21T11:00:18.329Z,34.30
2022-08-21T11:02:51.526Z,34.20
2022-08-21T11:05:25.053Z,34.40
2022-08-21T11:07:56.080Z,34.50
2022-08-21T11:10:30.473Z,34.50
2022-08-21T11:13:01.905Z,34.60
2022-08-21T11:15:37.745Z,34.50
2022-08-21T11:18:16.196Z,34.40
2022-08-21T11:20:51.421Z,34.40
2022-08-21T11:23:23.635Z,34.40
2022-08-21T11:25:54.813Z,34.40
2022-08-21T11:28:26.173Z,34.30
2022-08-21T11:31:00.057Z,34.30
2022-08-21T11:33:37.296Z,34.50
2022-08-21T11:36:13.987Z,34.60
2022-08-21T11:38:43.493Z,34.90
2022-08-21T11:41:23.143Z,35.00
2022-08-21T11:43:55.859Z,35.10
2022-08-21T11:46:32.072Z,34.90
2022-08-21T11:49:09.945Z,34.70
2022-08-21T11:51:43.241Z,34.40
2022-08-21T11:54:22.385Z,33.80
2022-08-21T11:56:54.429Z,33.50
2022-08-21T11:59:26.518Z,33.60
2022-08-21T12:01:54.557Z,33.60
2022-08-21T12:04:28.691Z,33.60
2022-08-21T12:06:57.965Z,33.70
2022-08-21T12:09:35.333Z,33.90
2022-08-21T12:12:06.264Z,34.10
2022-08-21T12:14:41.692Z,34.30
2022-08-21T12:17:20.358Z,34.40
2022-08-21T12:19:58.496Z,34.50
2022-08-21T12:22:37.800Z,34.60
2022-08-21T12:25:08.704Z,34.80
2022-08-21T12:27:47.465Z,34.70
2022-08-21T12:30:25.759Z,34.60
2022-08-21T12:33:00.364Z,34.40
2022-08-21T12:35:32.952Z,34.60
2022-08-21T12:38:07.286Z,34.20
2022-08-21T12:40:41.042Z,34.20
2022-08-21T12:43:14.872Z,34.20
2022-08-21T12:45:44.769Z,33.90
2022-08-21T12:48:19.728Z,33.80
2022-08-21T12:50:54.584Z,33.70
2022-08-21T12:53:29.244Z,33.30
2022-08-21T12:56:02.141Z,32.90
2022-08-21T12:58:29.330Z,32.70
2022-08-21T13:01:02.625Z,32.80
2022-08-21T13:03:30.038Z,32.90
2022-08-21T13:05:58.464Z,32.90
2022-08-21T13:08:28.456Z,33.20
2022-08-21T13:11:00.329Z,33.50
2022-08-21T13:13:44.600Z,33.90
2022-08-21T13:16:19.730Z,33.90
2022-08-21T13:18:55.410Z,33.80
2022-08-21T13:21:28.061Z,33.70
2022-08-21T13:24:25.518Z,33.30
2022-08-21T13:26:55.659Z,32.80
2022-08-21T13:29:24.933Z,32.30
2022-08-21T13:31:54.696Z,32.20
2022-08-21T13:34:23.746Z,31.90
2022-08-21T13:36:55.718Z,31.70
2022-08-21T13:39:24.450Z,31.40
2022-08-21T13:41:55.538Z,31.20
2022-08-21T13:44:27.862Z,31.20
2022-08-21T13:46:55.507Z,31.60
2022-08-21T13:49:30.244Z,31.90
2022-08-21T13:51:57.190Z,32.00
2022-08-21T13:54:29.840Z,32.10
2022-08-21T13:56:56.836Z,32.10
2022-08-21T13:59:28.928Z,32.10
2022-08-21T14:02:00.214Z,32.20
2022-08-21T14:04:33.692Z,32.20
2022-08-21T14:07:01.382Z,32.40
2022-08-21T14:09:32.290Z,32.40
2022-08-21T14:12:01.170Z,32.30
2022-08-21T14:14:31.091Z,32.00
2022-08-21T14:17:00.687Z,31.90
2022-08-21T14:19:36.068Z,31.70
2022-08-21T14:22:02.990Z,31.60
2022-08-21T14:24:31.610Z,31.60
2022-08-21T14:27:05.635Z,31.60
2022-08-21T14:29:35.990Z,31.50
2022-08-21T14:32:21.509Z,31.50
2022-08-21T14:34:49.024Z,31.70
2022-08-21T14:37:15.888Z,32.00
2022-08-21T14:39:45.312Z,32.20
2022-08-21T14:42:13.460Z,32.50
2022-08-21T14:44:40.346Z,32.60
2022-08-21T14:47:07.452Z,32.60
2022-08-21T14:49:34.330Z,32.50
2022-08-21T14:52:01.307Z,32.40
2022-08-21T14:54:31.658Z,32.50
2022-08-21T14:57:03.391Z,32.60
2022-08-21T14:59:31.002Z,32.50
2022-08-21T15:01:57.914Z,32.30
2022-08-21T15:04:25.444Z,32.10
2022-08-21T15:06:52.355Z,31.90
2022-08-21T15:09:19.373Z,31.50
2022-08-21T15:11:46.453Z,31.10
2022-08-21T15:14:19.675Z,30.70
2022-08-21T15:16:47.182Z,30.40
2022-08-21T15:19:14.048Z,30.10
2022-08-21T15:21:40.969Z,29.90
2022-08-21T15:24:07.929Z,29.90
2022-08-21T15:26:35.918Z,29.90
2022-08-21T15:29:03.640Z,30.10
2022-08-21T15:31:35.890Z,30.10
2022-08-21T15:34:02.989Z,30.10
2022-08-21T15:36:29.939Z,30.20
2022-08-21T15:38:56.808Z,30.20
2022-08-21T15:41:23.711Z,30.10
2022-08-21T15:43:53.970Z,29.80
2022-08-21T15:46:22.216Z,29.50
2022-08-21T15:48:50.547Z,29.30
2022-08-21T15:51:18.043Z,29.20
2022-08-21T15:53:45.249Z,29.20
2022-08-21T15:56:18.830Z,29.20
2022-08-21T15:58:45.734Z,29.10
2022-08-21T16:01:12.665Z,28.90
2022-08-21T16:03:40.003Z,28.80
2022-08-21T16:06:08.369Z,28.80
2022-08-21T16:08:35.225Z,28.80
2022-08-21T16:11:02.567Z,28.80
2022-08-21T16:13:37.345Z,28.80
2022-08-21T16:16:05.087Z,28.80
2022-08-21T16:18:32.268Z,28.70
2022-08-21T16:20:59.153Z,28.70
2022-08-21T16:23:27.399Z,28.60
2022-08-21T16:25:54.537Z,28.40
2022-08-21T16:28:21.996Z,28.30
2022-08-21T16:30:50.778Z,28.20
2022-08-21T16:33:24.935Z,28.20
2022-08-21T16:35:52.313Z,28.10
2022-08-21T16:38:19.397Z,28.00
2022-08-21T16:40:47.969Z,27.90
2022-08-21T16:43:15.759Z,27.70
2022-08-21T16:45:43.933Z,27.50
2022-08-21T16:48:11.026Z,27.40
2022-08-21T16:50:38.277Z,27.20
2022-08-21T16:53:06.885Z,27.20
2022-08-21T16:55:35.460Z,27.10
2022-08-21T16:58:09.284Z,27.10
2022-08-21T17:00:36.193Z,27.00
2022-08-21T17:03:03.200Z,27.00
2022-08-21T17:05:30.273Z,27.00
2022-08-21T17:07:57.163Z,27.00
2022-08-21T17:10:24.167Z,27.00
2022-08-21T17:12:55.906Z,27.00
2022-08-21T17:15:27.429Z,27.00
2022-08-21T17:17:56.465Z,27.00
2022-08-21T17:20:24.534Z,26.90
2022-08-21T17:22:51.772Z,27.00
2022-08-21T17:25:19.396Z,27.10
2022-08-21T17:27:48.071Z,27.10
2022-08-21T17:30:16.756Z,27.00
2022-08-21T17:32:46.622Z,26.80
2022-08-21T17:35:13.876Z,26.70
2022-08-21T17:37:41.176Z,26.50
2022-08-21T17:40:12.304Z,26.50
2022-08-21T17:42:40.606Z,26.40
2022-08-21T17:45:11.243Z,26.40
2022-08-21T17:47:38.476Z,26.30
2022-08-21T17:50:09.397Z,26.30
2022-08-21T17:52:36.707Z,26.20
2022-08-21T17:55:04.801Z,26.20
2022-08-21T17:57:35.280Z,26.20
2022-08-21T18:00:05.341Z,26.10
2022-08-21T18:02:39.453Z,26.10
2022-08-21T18:05:10.256Z,26.10
2022-08-21T18:07:37.909Z,26.00
2022-08-21T18:10:08.123Z,25.90
2022-08-21T18:12:35.636Z,25.80
2022-08-21T18:15:03.914Z,25.70
2022-08-21T18:17:33.637Z,25.60
2022-08-21T18:20:01.910Z,25.40
2022-08-21T18:22:30.130Z,25.30
2022-08-21T18:24:57.181Z,25.20
2022-08-21T18:27:29.050Z,25.10
2022-08-21T18:29:58.361Z,24.90
2022-08-21T18:32:31.234Z,24.80
2022-08-21T18:35:02.835Z,24.70
2022-08-21T18:37:31.346Z,24.60
2022-08-21T18:39:59.073Z,24.60
2022-08-21T18:42:28.794Z,24.50
2022-08-21T18:45:00.432Z,24.40
2022-08-21T18:47:33.522Z,24.30
2022-08-21T18:50:00.527Z,24.30
2022-08-21T18:52:28.551Z,24.30
2022-08-21T18:54:57.499Z,24.20
2022-08-21T18:57:27.956Z,24.10
2022-08-21T18:59:54.896Z,24.10
2022-08-21T19:02:23.278Z,24.00
2022-08-21T19:04:51.437Z,23.90
2022-08-21T19:07:20.409Z,23.80
2022-08-21T19:10:07.571Z,23.70
2022-08-21T19:12:37.392Z,23.70
2022-08-21T19:15:09.508Z,23.60
2022-08-21T19:17:36.879Z,23.50
2022-08-21T19:20:08.331Z,23.40
2022-08-21T19:22:53.512Z,23.30
2022-08-21T19:25:33.004Z,23.20
2022-08-21T19:28:03.682Z,23.00
2022-08-21T19:30:40.884Z,23.00
2022-08-21T19:33:08.656Z,22.80
2022-08-21T19:35:35.600Z,22.80
2022-08-21T19:38:02.549Z,22.70
2022-08-21T19:40:31.992Z,22.70
2022-08-21T19:42:59.144Z,22.70
2022-08-21T19:45:29.015Z,22.60
2022-08-21T19:47:56.396Z,22.50
2022-08-21T19:50:26.047Z,22.40
2022-08-21T19:52:52.924Z,22.30
2022-08-21T19:55:20.352Z,22.30
2022-08-21T19:57:50.507Z,22.20
2022-08-21T20:00:18.100Z,22.10
2022-08-21T20:02:48.104Z,22.10
2022-08-21T20:05:15.993Z,22.00
2022-08-21T20:07:46.002Z,22.00
2022-08-21T20:10:13.590Z,21.90
2022-08-21T20:12:41.693Z,21.90
2022-08-21T20:15:09.533Z,21.80
2022-08-21T20:17:38.676Z,21.80
2022-08-21T20:20:08.106Z,21.70
2022-08-21T20:22:34.972Z,21.70
2022-08-21T20:25:02.046Z,21.60
2022-08-21T20:27:29.020Z,21.60
2022-08-21T20:29:56.495Z,21.60
2022-08-21T20:32:23.364Z,21.50
2022-08-21T20:34:51.839Z,21.50
2022-08-21T20:37:22.113Z,21.50
2022-08-21T20:40:11.310Z,21.50
2022-08-21T20:42:39.080Z,21.30
2022-08-21T20:45:08.375Z,21.10
2022-08-21T20:47:58.227Z,21.00
2022-08-21T20:50:28.862Z,20.90
2022-08-21T20:53:03.459Z,20.90
2022-08-21T20:55:32.628Z,20.80
2022-08-21T20:58:03.963Z,20.80
2022-08-21T21:00:34.840Z,20.80
2022-08-21T21:03:07.739Z,20.80
2022-08-21T21:05:39.527Z,20.70
2022-08-21T21:08:12.009Z,20.60
2022-08-21T21:10:47.050Z,20.60
2022-08-21T21:13:19.349Z,20.50
2022-08-21T21:15:51.453Z,20.40
2022-08-21T21:18:27.336Z,20.40
2022-08-21T21:21:01.521Z,20.40
2022-08-21T21:23:40.116Z,20.30
2022-08-21T21:26:14.487Z,20.30
2022-08-21T21:28:48.387Z,20.30
2022-08-21T21:31:17.886Z,20.30
2022-08-21T21:33:46.710Z,20.30
2022-08-21T21:36:24.190Z,20.20
2022-08-21T21:38:59.020Z,20.20
2022-08-21T21:41:31.749Z,20.10
2022-08-21T21:44:15.900Z,20.10
2022-08-21T21:46:51.985Z,20.00
2022-08-21T21:49:34.145Z,19.90
2022-08-21T21:52:13.280Z,19.90
2022-08-21T21:55:02.836Z,19.80
2022-08-21T21:57:49.501Z,19.80
2022-08-21T22:00:26.653Z,19.70
2022-08-21T22:03:05.098Z,19.70
2022-08-21T22:05:48.879Z,19.70
2022-08-21T22:11:28.729Z,19.60
2022-08-21T22:14:03.679Z,19.50
2022-08-21T22:16:33.308Z,19.40
2022-08-21T22:19:06.889Z,19.40
2022-08-21T22:21:36.986Z,19.30
2022-08-21T22:24:12.541Z,19.20
2022-08-21T22:26:45.782Z,19.20
2022-08-21T22:29:16.774Z,19.20
2022-08-21T22:31:44.595Z,19.20
2022-08-21T22:34:19.613Z,19.20
2022-08-21T22:36:54.661Z,19.20
2022-08-21T22:39:27.460Z,19.20
2022-08-21T22:41:55.742Z,19.20
2022-08-21T22:44:27.307Z,19.20
2022-08-21T22:46:57.091Z,19.10
2022-08-21T22:49:31.504Z,19.00
2022-08-21T22:52:10.515Z,19.00
2022-08-21T22:54:40.936Z,18.90
2022-08-21T22:57:13.608Z,18.90
2022-08-21T22:59:52.602Z,18.90
2022-08-21T23:02:28.800Z,18.80
2022-08-21T23:04:59.235Z,18.80
2022-08-21T23:07:43.616Z,18.80
2022-08-21T23:10:22.585Z,18.80
2022-08-21T23:13:01.849Z,18.80
2022-08-21T23:15:34.102Z,18.70
2022-08-21T23:18:12.370Z,18.70
2022-08-21T23:20:46.089Z,18.60
2022-08-21T23:23:24.381Z,18.60
2022-08-21T23:26:06.372Z,18.50
2022-08-21T23:28:57.296Z,18.40
2022-08-21T23:31:31.552Z,18.40
2022-08-21T23:34:06.330Z,18.30
2022-08-21T23:37:01.429Z,18.40
2022-08-21T23:39:42.244Z,18.30
2022-08-21T23:42:21.390Z,18.30
2022-08-21T23:45:12.235Z,18.20
2022-08-21T23:47:53.455Z,18.10
2022-08-21T23:50:29.493Z,18.10
2022-08-21T23:53:10.146Z,18.00
2022-08-21T23:55:49.819Z,18.00
2022-08-21T23:58:32.017Z,17.90
